createdAt,value
2022-10-13T00:00:49.573Z,99058.03
2022-10-13T00:04:05.776Z,99060.27
2022-10-13T00:07:08.619Z,99056.16
2022-10-13T00:10:11.572Z,99054.90
2022-10-13T00:13:15.030Z,99057.60
2022-10-13T00:16:20.651Z,99052.33
2022-10-13T00:19:23.422Z,99053.08
2022-10-13T00:22:27.712Z,99046.19
2022-10-13T00:25:30.543Z,99047.37
2022-10-13T00:28:33.438Z,99044.48
2022-10-13T00:31:36.338Z,99041.91
2022-10-13T00:34:40.392Z,99034.77
2022-10-13T00:37:43.209Z,99031.89
2022-10-13T00:40:56.365Z,99030.91
2022-10-13T00:44:26.874Z,99028.66
2022-10-13T00:47:40.718Z,99023.96
2022-10-13T00:50:44.189Z,99024.42
2022-10-13T00:53:48.471Z,99031.44
2022-10-13T00:56:53.536Z,99032.65
2022-10-13T00:59:57.035Z,99031.17
2022-10-13T01:03:01.018Z,99026.48
2022-10-13T01:06:05.781Z,99021.73
2022-10-13T01:09:08.626Z,99025.83
2022-10-13T01:12:20.187Z,99021.46
2022-10-13T01:15:39.702Z,99018.42
2022-10-13T01:18:59.876Z,99016.64
2022-10-13T01:22:21.420Z,99015.77
2022-10-13T01:25:30.393Z,99005.98
2022-10-13T01:28:53.409Z,99008.69
2022-10-13T01:32:06.245Z,99008.53
2022-10-13T01:35:36.002Z,99008.78
2022-10-13T01:38:49.803Z,99000.27
2022-10-13T01:42:00.867Z,98995.86
2022-10-13T01:45:04.494Z,98995.61
2022-10-13T01:48:08.897Z,98991.91
2022-10-13T01:51:20.739Z,98990.00
2022-10-13T01:54:27.132Z,98985.91
2022-10-13T01:57:38.241Z,98982.37
2022-10-13T02:00:48.824Z,98986.09
2022-10-13T02:04:10.553Z,98981.43
2022-10-13T02:07:19.858Z,98980.52
2022-10-13T02:10:31.045Z,98978.67
2022-10-13T02:13:36.833Z,98981.64
2022-10-13T02:16:45.439Z,98976.58
2022-10-13T02:19:48.571Z,98973.21
2022-10-13T02:22:57.939Z,98969.90
2022-10-13T02:26:00.999Z,98971.02
2022-10-13T02:29:12.475Z,98970.41
2022-10-13T02:32:15.372Z,98966.31
2022-10-13T02:35:18.558Z,98965.60
2022-10-13T02:38:21.545Z,98964.28
2022-10-13T02:41:24.704Z,98964.45
2022-10-13T02:44:27.586Z,98963.50
2022-10-13T02:47:30.538Z,98964.41
2022-10-13T02:50:33.405Z,98959.79
2022-10-13T02:53:36.230Z,98959.46
2022-10-13T02:56:39.098Z,98958.84
2022-10-13T02:59:41.918Z,98952.80
2022-10-13T03:02:44.710Z,98953.95
2022-10-13T03:05:47.587Z,98958.39
2022-10-13T03:08:50.718Z,98959.52
2022-10-13T03:11:53.818Z,98959.06
2022-10-13T03:14:57.504Z,98960.98
2022-10-13T03:18:00.329Z,98955.02
2022-10-13T03:21:06.490Z,98952.58
2022-10-13T03:24:09.500Z,98949.52
2022-10-13T03:27:12.533Z,98950.23
2022-10-13T03:30:15.414Z,98948.94
2022-10-13T03:33:18.297Z,98946.63
2022-10-13T03:36:21.122Z,98945.98
2022-10-13T03:39:25.397Z,98946.50
2022-10-13T03:42:28.221Z,98948.89
2022-10-13T03:45:31.436Z,98945.14
2022-10-13T03:48:36.170Z,98944.05
2022-10-13T03:51:39.819Z,98941.33
2022-10-13T03:54:42.619Z,98940.07
2022-10-13T03:57:45.480Z,98941.28
2022-10-13T04:00:48.440Z,98942.73
2022-10-13T04:03:54.316Z,98940.84
2022-10-13T04:06:57.587Z,98935.81
2022-10-13T04:10:00.434Z,98937.10
2022-10-13T04:13:05.672Z,98941.90
2022-10-13T04:16:18.938Z,98938.88
2022-10-13T04:19:21.887Z,98936.41
2022-10-13T04:22:24.694Z,98934.08
2022-10-13T04:25:27.604Z,98931.35
2022-10-13T04:28:30.636Z,98932.50
2022-10-13T04:31:34.370Z,98926.47
2022-10-13T04:34:37.407Z,98927.69
2022-10-13T04:37:44.974Z,98928.66
2022-10-13T04:40:48.324Z,98931.55
2022-10-13T04:43:52.276Z,98929.54
2022-10-13T04:46:55.486Z,98929.70
2022-10-13T04:49:58.275Z,98928.86
2022-10-13T04:53:01.146Z,98933.66
2022-10-13T04:56:09.671Z,98930.71
2022-10-13T04:59:12.641Z,98929.28
2022-10-13T05:02:15.540Z,98934.36
2022-10-13T05:05:18.444Z,98934.64
2022-10-13T05:08:21.718Z,98938.38
2022-10-13T05:11:26.631Z,98940.66
2022-10-13T05:14:31.110Z,98937.98
2022-10-13T05:17:36.288Z,98940.70
2022-10-13T05:20:44.019Z,98939.71
2022-10-13T05:23:47.123Z,98937.92
2022-10-13T05:26:49.924Z,98936.46
2022-10-13T05:29:52.782Z,98941.08
2022-10-13T05:32:55.713Z,98941.90
2022-10-13T05:36:15.078Z,98945.66
2022-10-13T05:39:18.004Z,98942.36
2022-10-13T05:42:21.191Z,98942.56
2022-10-13T05:45:24.485Z,98938.79
2022-10-13T05:48:27.979Z,98942.88
2022-10-13T05:51:37.196Z,98937.92
2022-10-13T05:54:46.200Z,98933.47
2022-10-13T05:57:52.268Z,98935.51
2022-10-13T06:00:55.798Z,98940.42
2022-10-13T06:04:03.996Z,98938.02
2022-10-13T06:07:08.407Z,98938.20
2022-10-13T06:10:11.931Z,98933.09
2022-10-13T06:13:14.831Z,98933.00
2022-10-13T06:16:17.908Z,98928.81
2022-10-13T06:19:21.835Z,98935.58
2022-10-13T06:22:24.709Z,98936.05
2022-10-13T06:25:27.557Z,98928.69
2022-10-13T06:28:30.400Z,98927.73
2022-10-13T06:31:33.269Z,98920.78
2022-10-13T06:34:36.055Z,98920.20
2022-10-13T06:37:39.198Z,98924.93
2022-10-13T06:40:46.172Z,98924.04
2022-10-13T06:43:49.626Z,98922.77
2022-10-13T06:46:53.054Z,98916.58
2022-10-13T06:49:56.379Z,98918.93
2022-10-13T06:52:59.439Z,98920.35
2022-10-13T06:56:04.570Z,98914.71
2022-10-13T06:59:07.446Z,98919.23
2022-10-13T07:02:11.422Z,98920.57
2022-10-13T07:05:14.370Z,98916.50
2022-10-13T07:08:17.888Z,98916.40
2022-10-13T07:11:20.890Z,98914.05
2022-10-13T07:14:27.532Z,98910.52
2022-10-13T07:17:30.314Z,98908.39
2022-10-13T07:20:33.758Z,98913.48
2022-10-13T07:23:36.560Z,98915.65
2022-10-13T07:26:39.330Z,98914.78
2022-10-13T07:29:42.240Z,98914.99
2022-10-13T07:32:45.131Z,98906.29
2022-10-13T07:35:47.925Z,98901.03
2022-10-13T07:38:50.833Z,98900.08
2022-10-13T07:41:53.741Z,98902.58
2022-10-13T07:44:56.621Z,98898.07
2022-10-13T07:48:01.851Z,98893.03
2022-10-13T07:51:07.542Z,98892.60
2022-10-13T07:54:11.030Z,98896.06
2022-10-13T07:57:14.101Z,98893.28
2022-10-13T08:00:17.527Z,98895.67
2022-10-13T08:03:20.377Z,98896.23
2022-10-13T08:06:23.305Z,98894.14
2022-10-13T08:09:29.991Z,98893.44
2022-10-13T08:12:35.475Z,98892.92
2022-10-13T08:15:42.868Z,98890.28
2022-10-13T08:18:46.419Z,98890.30
2022-10-13T08:21:58.317Z,98884.05
2022-10-13T08:25:02.507Z,98885.15
2022-10-13T08:28:22.982Z,98885.58
2022-10-13T08:31:29.064Z,98882.02
2022-10-13T08:34:34.031Z,98877.20
2022-10-13T08:37:36.982Z,98870.29
2022-10-13T08:40:39.939Z,98865.05
2022-10-13T08:44:24.759Z,98868.04
2022-10-13T08:47:48.306Z,98863.60
2022-10-13T08:50:54.971Z,98865.95
2022-10-13T08:53:59.220Z,98862.10
2022-10-13T08:57:02.072Z,98859.77
2022-10-13T09:00:07.257Z,98861.73
2022-10-13T09:03:29.043Z,98859.58
2022-10-13T09:06:36.827Z,98856.55
2022-10-13T09:09:40.099Z,98856.81
2022-10-13T09:12:42.987Z,98852.51
2022-10-13T09:15:50.318Z,98850.69
2022-10-13T09:18:53.116Z,98851.05
2022-10-13T09:22:13.127Z,98850.73
2022-10-13T09:25:20.056Z,98852.28
2022-10-13T09:28:27.669Z,98842.03
2022-10-13T09:31:32.312Z,98841.14
2022-10-13T09:34:35.116Z,98837.85
2022-10-13T09:37:41.627Z,98837.96
2022-10-13T09:40:58.036Z,98834.13
2022-10-13T09:44:11.745Z,98835.26
2022-10-13T09:47:21.674Z,98836.79
2022-10-13T09:50:27.813Z,98836.11
2022-10-13T09:53:37.786Z,98832.61
2022-10-13T09:56:49.347Z,98827.36
2022-10-13T09:59:58.934Z,98823.23
2022-10-13T10:03:10.712Z,98822.98
2022-10-13T10:06:15.891Z,98819.94
2022-10-13T10:09:41.590Z,98816.43
2022-10-13T10:12:45.309Z,98813.71
2022-10-13T10:16:20.714Z,98815.65
2022-10-13T10:19:55.387Z,98808.96
2022-10-13T10:23:11.234Z,98806.95
2022-10-13T10:26:20.750Z,98801.95
2022-10-13T10:29:39.054Z,98800.19
2022-10-13T10:33:07.901Z,98799.92
2022-10-13T10:36:19.913Z,98796.75
2022-10-13T10:39:41.378Z,98791.58
2022-10-13T10:42:58.994Z,98792.86
2022-10-13T10:46:01.856Z,98789.40
2022-10-13T10:49:35.173Z,98787.89
2022-10-13T10:53:00.891Z,98788.77
2022-10-13T10:56:07.789Z,98784.33
2022-10-13T10:59:37.270Z,98778.66
2022-10-13T11:02:55.308Z,98774.33
2022-10-13T11:06:20.863Z,98772.52
2022-10-13T11:09:42.745Z,98765.58
2022-10-13T11:13:26.927Z,98767.80
2022-10-13T11:16:40.103Z,98765.83
2022-10-13T11:19:49.682Z,98762.44
2022-10-13T11:22:58.522Z,98755.98
2022-10-13T11:26:20.709Z,98750.85
2022-10-13T11:29:51.523Z,98744.63
2022-10-13T11:32:57.129Z,98743.14
2022-10-13T11:36:27.728Z,98742.58
2022-10-13T11:39:59.576Z,98737.29
2022-10-13T11:43:37.348Z,98728.40
2022-10-13T11:46:52.423Z,98720.75
2022-10-13T11:50:04.285Z,98716.57
2022-10-13T11:53:11.956Z,98717.52
2022-10-13T11:56:31.871Z,98711.60
2022-10-13T11:59:37.674Z,98704.91
2022-10-13T12:02:49.111Z,98704.20
2022-10-13T12:05:53.580Z,98700.41
2022-10-13T12:08:56.434Z,98697.72
2022-10-13T12:12:13.213Z,98698.42
2022-10-13T12:15:31.196Z,98694.41
2022-10-13T12:18:38.374Z,98691.17
2022-10-13T12:21:56.329Z,98688.58
2022-10-13T12:25:05.356Z,98686.64
2022-10-13T12:28:19.250Z,98684.20
2022-10-13T12:31:27.773Z,98682.38
2022-10-13T12:34:34.526Z,98675.36
2022-10-13T12:37:37.452Z,98677.80
2022-10-13T12:40:40.599Z,98674.09
2022-10-13T12:43:44.691Z,98669.91
2022-10-13T12:46:53.476Z,98663.36
2022-10-13T12:50:23.676Z,98667.85
2022-10-13T12:53:28.829Z,98659.64
2022-10-13T12:56:32.505Z,98659.48
2022-10-13T12:59:43.049Z,98661.53
2022-10-13T13:03:04.030Z,98657.43
2022-10-13T13:06:13.435Z,98651.44
2022-10-13T13:09:22.228Z,98647.57
2022-10-13T13:12:28.028Z,98642.60
2022-10-13T13:15:36.379Z,98641.42
2022-10-13T13:18:41.794Z,98639.54
2022-10-13T13:21:44.722Z,98632.52
2022-10-13T13:24:49.444Z,98628.96
2022-10-13T13:27:53.088Z,98623.30
2022-10-13T13:30:55.856Z,98625.04
2022-10-13T13:33:58.581Z,98624.08
2022-10-13T13:37:02.638Z,98626.13
2022-10-13T13:40:07.392Z,98624.77
2022-10-13T13:43:10.125Z,98621.87
2022-10-13T13:46:17.232Z,98622.33
2022-10-13T13:49:19.987Z,98623.83
2022-10-13T13:52:25.340Z,98624.54
2022-10-13T13:55:29.665Z,98620.11
2022-10-13T13:58:32.429Z,98617.90
2022-10-13T14:01:35.794Z,98613.33
2022-10-13T14:04:38.562Z,98613.64
2022-10-13T14:07:41.440Z,98613.73
2022-10-13T14:10:44.297Z,98618.86
2022-10-13T14:13:48.085Z,98616.10
2022-10-13T14:16:52.719Z,98615.10
2022-10-13T14:19:55.608Z,98609.96
2022-10-13T14:22:58.370Z,98606.35
2022-10-13T14:26:05.914Z,98605.56
2022-10-13T14:29:08.731Z,98609.91
2022-10-13T14:32:12.176Z,98609.91
2022-10-13T14:35:15.025Z,98608.73
2022-10-13T14:38:18.250Z,98612.76
2022-10-13T14:41:24.419Z,98611.43
2022-10-13T14:44:27.217Z,98611.83
2022-10-13T14:47:29.949Z,98612.85
2022-10-13T14:50:32.765Z,98606.40
2022-10-13T14:53:41.429Z,98608.77
2022-10-13T14:56:44.915Z,98609.48
2022-10-13T14:59:47.753Z,98608.39
2022-10-13T15:02:50.528Z,98604.85
2022-10-13T15:05:54.187Z,98604.31
2022-10-13T15:08:59.461Z,98604.16
2022-10-13T15:12:02.764Z,98602.83
2022-10-13T15:15:05.991Z,98599.85
2022-10-13T15:18:08.727Z,98598.52
2022-10-13T15:21:12.148Z,98599.14
2022-10-13T15:24:14.916Z,98597.56
2022-10-13T15:27:18.281Z,98593.48
2022-10-13T15:30:21.049Z,98593.88
2022-10-13T15:33:23.900Z,98591.98
2022-10-13T15:36:26.724Z,98588.46
2022-10-13T15:39:29.589Z,98591.45
2022-10-13T15:42:32.692Z,98588.55
2022-10-13T15:45:36.038Z,98582.34
2022-10-13T15:48:39.312Z,98575.48
2022-10-13T15:51:42.173Z,98581.02
2022-10-13T15:54:45.072Z,98579.84
2022-10-13T15:57:47.946Z,98580.48
2022-10-13T16:00:50.736Z,98579.85
2022-10-13T16:03:55.245Z,98578.44
2022-10-13T16:06:57.993Z,98585.13
2022-10-13T16:10:00.990Z,98585.83
2022-10-13T16:13:03.917Z,98584.65
2022-10-13T16:16:07.604Z,98589.23
2022-10-13T16:19:10.482Z,98591.10
2022-10-13T16:22:13.567Z,98588.04
2022-10-13T16:25:16.795Z,98585.81
2022-10-13T16:28:19.718Z,98584.32
2022-10-13T16:31:22.769Z,98585.27
2022-10-13T16:34:26.108Z,98588.09
2022-10-13T16:37:28.926Z,98584.55
2022-10-13T16:40:32.477Z,98586.42
2022-10-13T16:43:35.760Z,98585.15
2022-10-13T16:46:38.814Z,98584.21
2022-10-13T16:49:41.992Z,98581.44
2022-10-13T16:52:47.256Z,98581.91
2022-10-13T16:55:50.262Z,98584.04
2022-10-13T16:58:55.679Z,98579.95
2022-10-13T17:01:59.443Z,98577.75
2022-10-13T17:05:02.382Z,98582.53
2022-10-13T17:08:06.464Z,98581.98
2022-10-13T17:11:15.706Z,98579.53
2022-10-13T17:14:18.648Z,98576.54
2022-10-13T17:17:21.732Z,98576.71
2022-10-13T17:20:24.880Z,98570.80
2022-10-13T17:23:29.262Z,98572.45
2022-10-13T17:26:32.489Z,98571.83
2022-10-13T17:29:35.276Z,98570.34
2022-10-13T17:32:38.913Z,98572.23
2022-10-13T17:35:41.757Z,98573.10
2022-10-13T17:38:45.255Z,98569.25
2022-10-13T17:41:48.133Z,98567.92
2022-10-13T17:44:51.059Z,98569.09
2022-10-13T17:47:53.943Z,98574.45
2022-10-13T17:51:02.732Z,98578.61
2022-10-13T17:54:08.233Z,98577.36
2022-10-13T17:57:14.510Z,98576.19
2022-10-13T18:00:18.095Z,98575.26
2022-10-13T18:03:21.552Z,98575.02
2022-10-13T18:06:24.485Z,98574.86
2022-10-13T18:09:27.326Z,98574.48
2022-10-13T18:12:30.117Z,98579.59
2022-10-13T18:15:36.876Z,98575.42
2022-10-13T18:18:39.876Z,98576.27
2022-10-13T18:21:43.046Z,98577.38
2022-10-13T18:24:46.347Z,98571.17
2022-10-13T18:27:49.205Z,98568.19
2022-10-13T18:30:52.051Z,98568.81
2022-10-13T18:34:00.678Z,98571.96
2022-10-13T18:37:05.656Z,98572.35
2022-10-13T18:40:09.003Z,98574.40
2022-10-13T18:43:11.848Z,98569.84
2022-10-13T18:46:14.836Z,98570.63
2022-10-13T18:49:20.608Z,98567.10
2022-10-13T18:52:23.507Z,98564.57
2022-10-13T18:55:26.404Z,98565.52
2022-10-13T18:58:30.549Z,98567.00
2022-10-13T19:01:35.139Z,98563.31
2022-10-13T19:04:38.312Z,98562.91
2022-10-13T19:07:41.345Z,98560.23
2022-10-13T19:10:44.180Z,98556.93
2022-10-13T19:13:48.369Z,98556.63
2022-10-13T19:16:51.312Z,98557.48
2022-10-13T19:19:56.352Z,98558.89
2022-10-13T19:22:59.222Z,98555.59
2022-10-13T19:26:15.254Z,98557.23
2022-10-13T19:29:18.417Z,98555.34
2022-10-13T19:32:21.357Z,98555.49
2022-10-13T19:35:24.300Z,98552.02
2022-10-13T19:38:27.361Z,98552.16
2022-10-13T19:41:32.349Z,98549.31
2022-10-13T19:44:35.376Z,98549.15
2022-10-13T19:47:38.373Z,98545.92
2022-10-13T19:50:44.138Z,98545.37
2022-10-13T19:53:49.484Z,98548.98
2022-10-13T19:56:52.534Z,98552.30
2022-10-13T19:59:55.444Z,98548.05
2022-10-13T20:02:58.362Z,98550.47
2022-10-13T20:06:05.845Z,98547.88
2022-10-13T20:09:14.705Z,98547.41
2022-10-13T20:12:17.598Z,98549.45
2022-10-13T20:15:20.623Z,98553.30
2022-10-13T20:18:24.040Z,98553.77
2022-10-13T20:21:27.749Z,98557.92
2022-10-13T20:24:30.659Z,98555.64
2022-10-13T20:27:34.037Z,98552.73
2022-10-13T20:30:39.468Z,98551.85
2022-10-13T20:33:43.401Z,98549.34
2022-10-13T20:36:46.314Z,98545.64
2022-10-13T20:39:49.199Z,98540.06
2022-10-13T20:42:52.716Z,98539.34
2022-10-13T20:46:01.254Z,98537.45
2022-10-13T20:49:13.073Z,98533.44
2022-10-13T20:52:16.571Z,98530.91
2022-10-13T20:55:22.366Z,98532.96
2022-10-13T20:58:29.879Z,98532.33
2022-10-13T21:01:34.681Z,98535.16
2022-10-13T21:04:37.620Z,98539.57
2022-10-13T21:07:40.932Z,98538.31
2022-10-13T21:10:45.265Z,98532.25
2022-10-13T21:13:49.653Z,98533.98
2022-10-13T21:16:54.226Z,98534.45
2022-10-13T21:19:58.309Z,98538.23
2022-10-13T21:23:02.218Z,98541.15
2022-10-13T21:26:06.877Z,98542.64
2022-10-13T21:29:10.072Z,98536.65
2022-10-13T21:32:13.034Z,98530.77
2022-10-13T21:35:16.597Z,98533.52
2022-10-13T21:38:19.520Z,98530.39
2022-10-13T21:41:23.562Z,98529.52
2022-10-13T21:44:27.932Z,98526.68
2022-10-13T21:47:32.500Z,98523.99
2022-10-13T21:50:35.612Z,98516.20
2022-10-13T21:53:38.445Z,98515.81
2022-10-13T21:56:42.428Z,98516.52
2022-10-13T21:59:45.668Z,98515.11
2022-10-13T22:02:48.533Z,98518.40
2022-10-13T22:05:56.408Z,98517.15
2022-10-13T22:09:02.460Z,98523.84
2022-10-13T22:12:05.690Z,98519.27
2022-10-13T22:15:08.902Z,98524.14
2022-10-13T22:18:11.768Z,98520.14
2022-10-13T22:21:20.750Z,98524.85
2022-10-13T22:24:23.616Z,98522.50
2022-10-13T22:27:26.501Z,98522.11
2022-10-13T22:30:29.389Z,98514.71
2022-10-13T22:33:33.728Z,98515.20
2022-10-13T22:36:39.920Z,98517.95
2022-10-13T22:39:45.314Z,98517.09
2022-10-13T22:42:49.440Z,98511.81
2022-10-13T22:45:52.428Z,98503.88
2022-10-13T22:48:56.369Z,98499.63
2022-10-13T22:51:59.588Z,98501.05
2022-10-13T22:55:02.446Z,98496.34
2022-10-13T22:58:08.380Z,98491.15
2022-10-13T23:01:15.170Z,98492.10
2022-10-13T23:04:17.994Z,98495.09
2022-10-13T23:07:21.425Z,98498.45
2022-10-13T23:10:24.598Z,98494.85
2022-10-13T23:13:27.462Z,98498.69
2022-10-13T23:16:33.092Z,98494.38
2022-10-13T23:19:36.528Z,98492.34
2022-10-13T23:22:39.613Z,98490.29
2022-10-13T23:25:42.491Z,98494.91
2022-10-13T23:28:45.405Z,98490.75
2022-10-13T23:31:48.349Z,98488.16
2022-10-13T23:34:51.245Z,98487.30
2022-10-13T23:37:55.851Z,98493.73
2022-10-13T23:41:08.200Z,98485.09
2022-10-13T23:44:12.370Z,98484.46
2022-10-13T23:47:15.266Z,98484.06
2022-10-13T23:50:18.108Z,98485.25
2022-10-13T23:53:21.625Z,98482.04
2022-10-13T23:56:25.348Z,98482.27
2022-10-13T23:59:28.230Z,98474.64
